sensor_id;sensor_type;location;lat;lon;timestamp;temperature;humidity
24472;DHT22;12636;50.852;5.676;2023-10-13T09:05:55;23.50;1.00
24472;DHT22;12636;50.852;5.676;2023-10-13T09:08:29;23.20;1.00
24472;DHT22;12636;50.852;5.676;2023-10-13T09:11:03;23.00;1.00
24472;DHT22;12636;50.852;5.676;2023-10-13T09:13:38;22.80;1.00
24472;DHT22;12636;50.852;5.676;2023-10-13T09:16:13;22.70;1.00
24472;DHT22;12636;50.852;5.676;2023-10-13T09:18:48;22.50;34.70
24472;DHT22;12636;50.852;5.676;2023-10-13T09:21:19;22.60;99.90
24472;DHT22;12636;50.852;5.676;2023-10-13T09:24:09;22.60;99.90
24472;DHT22;12636;50.852;5.676;2023-10-13T09:26:53;22.50;99.90
24472;DHT22;12636;50.852;5.676;2023-10-13T09:29:21;22.40;99.90
24472;DHT22;12636;50.852;5.676;2023-10-13T09:31:59;22.40;99.90
24472;DHT22;12636;50.852;5.676;2023-10-13T09:34:26;22.40;99.90
24472;DHT22;12636;50.852;5.676;2023-10-13T09:36:59;22.50;99.90
24472;DHT22;12636;50.852;5.676;2023-10-13T09:39:29;22.60;99.90
24472;DHT22;12636;50.852;5.676;2023-10-13T09:42:10;22.70;99.90
24472;DHT22;12636;50.852;5.676;2023-10-13T09:44:38;23.40;99.90
24472;DHT22;12636;50.852;5.676;2023-10-13T09:47:10;23.90;1.00
24472;DHT22;12636;50.852;5.676;2023-10-13T09:49:44;24.30;1.00
24472;DHT22;12636;50.852;5.676;2023-10-13T09:52:15;24.60;1.00
24472;DHT22;12636;50.852;5.676;2023-10-13T09:54:56;24.40;1.00
24472;DHT22;12636;50.852;5.676;2023-10-13T09:57:32;24.60;1.00
24472;DHT22;12636;50.852;5.676;2023-10-13T10:00:12;24.20;1.00
24472;DHT22;12636;50.852;5.676;2023-10-13T10:02:55;24.70;1.00
24472;DHT22;12636;50.852;5.676;2023-10-13T10:05:40;24.50;1.00
24472;DHT22;12636;50.852;5.676;2023-10-13T10:08:08;23.80;1.00
24472;DHT22;12636;50.852;5.676;2023-10-13T10:10:51;23.70;1.00
24472;DHT22;12636;50.852;5.676;2023-10-13T10:13:24;23.80;1.00
24472;DHT22;12636;50.852;5.676;2023-10-13T10:15:58;23.80;1.00
24472;DHT22;12636;50.852;5.676;2023-10-13T10:18:28;24.20;1.00
24472;DHT22;12636;50.852;5.676;2023-10-13T10:21:03;24.30;1.00
24472;DHT22;12636;50.852;5.676;2023-10-13T10:23:34;23.90;1.00
24472;DHT22;12636;50.852;5.676;2023-10-13T10:26:11;23.40;1.00
24472;DHT22;12636;50.852;5.676;2023-10-13T10:28:42;23.30;1.00
24472;DHT22;12636;50.852;5.676;2023-10-13T10:31:10;23.20;1.00
24472;DHT22;12636;50.852;5.676;2023-10-13T10:33:40;23.00;1.00
24472;DHT22;12636;50.852;5.676;2023-10-13T10:36:09;22.90;1.00
24472;DHT22;12636;50.852;5.676;2023-10-13T10:38:53;22.90;1.00
24472;DHT22;12636;50.852;5.676;2023-10-13T10:41:28;22.80;1.00
24472;DHT22;12636;50.852;5.676;2023-10-13T10:44:10;22.80;1.00
24472;DHT22;12636;50.852;5.676;2023-10-13T10:46:42;22.90;1.00
24472;DHT22;12636;50.852;5.676;2023-10-13T10:49:18;23.10;1.00
24472;DHT22;12636;50.852;5.676;2023-10-13T10:51:58;23.10;1.00
24472;DHT22;12636;50.852;5.676;2023-10-13T10:54:31;23.30;1.00
24472;DHT22;12636;50.852;5.676;2023-10-13T10:56:59;23.20;1.00
24472;DHT22;12636;50.852;5.676;2023-10-13T10:59:38;23.20;1.00
24472;DHT22;12636;50.852;5.676;2023-10-13T11:02:07;23.10;1.00
24472;DHT22;12636;50.852;5.676;2023-10-13T11:04:34;23.10;1.00
24472;DHT22;12636;50.852;5.676;2023-10-13T11:07:07;23.00;1.00
24472;DHT22;12636;50.852;5.676;2023-10-13T11:09:36;23.00;1.00
24472;DHT22;12636;50.852;5.676;2023-10-13T11:12:12;23.00;1.00
24472;DHT22;12636;50.852;5.676;2023-10-13T11:14:43;23.00;1.00
24472;DHT22;12636;50.852;5.676;2023-10-13T11:17:19;23.00;1.00
24472;DHT22;12636;50.852;5.676;2023-10-13T11:19:51;22.90;1.00
24472;DHT22;12636;50.852;5.676;2023-10-13T11:22:20;23.00;1.00
24472;DHT22;12636;50.852;5.676;2023-10-13T11:25:01;22.90;1.00
24472;DHT22;12636;50.852;5.676;2023-10-13T11:27:35;22.90;1.00
24472;DHT22;12636;50.852;5.676;2023-10-13T11:30:22;23.00;1.00
24472;DHT22;12636;50.852;5.676;2023-10-13T11:32:59;23.00;1.00
24472;DHT22;12636;50.852;5.676;2023-10-13T11:35:27;22.90;1.00
24472;DHT22;12636;50.852;5.676;2023-10-13T11:38:15;23.00;99.90
24472;DHT22;12636;50.852;5.676;2023-10-13T11:40:53;22.90;99.90
24472;DHT22;12636;50.852;5.676;2023-10-13T11:43:39;23.10;99.90
24472;DHT22;12636;50.852;5.676;2023-10-13T11:46:19;23.20;99.90
24472;DHT22;12636;50.852;5.676;2023-10-13T11:49:01;23.10;99.90
24472;DHT22;12636;50.852;5.676;2023-10-13T11:51:33;23.20;99.90
24472;DHT22;12636;50.852;5.676;2023-10-13T11:54:04;23.20;99.90
24472;DHT22;12636;50.852;5.676;2023-10-13T11:56:32;23.20;99.90
24472;DHT22;12636;50.852;5.676;2023-10-13T11:58:59;23.10;99.90
24472;DHT22;12636;50.852;5.676;2023-10-13T12:01:28;23.00;99.90
24472;DHT22;12636;50.852;5.676;2023-10-13T12:04:09;23.00;99.90
24472;DHT22;12636;50.852;5.676;2023-10-13T12:06:54;23.10;99.90
24472;DHT22;12636;50.852;5.676;2023-10-13T12:09:40;23.20;99.90
24472;DHT22;12636;50.852;5.676;2023-10-13T12:12:20;23.20;99.90
24472;DHT22;12636;50.852;5.676;2023-10-13T12:14:47;23.30;99.90
24472;DHT22;12636;50.852;5.676;2023-10-13T12:17:21;23.30;99.90
24472;DHT22;12636;50.852;5.676;2023-10-13T12:19:53;23.30;99.90
24472;DHT22;12636;50.852;5.676;2023-10-13T12:22:23;23.20;99.90
24472;DHT22;12636;50.852;5.676;2023-10-13T12:24:54;23.10;99.90
24472;DHT22;12636;50.852;5.676;2023-10-13T12:27:23;23.10;99.90
24472;DHT22;12636;50.852;5.676;2023-10-13T12:29:53;23.20;99.90
24472;DHT22;12636;50.852;5.676;2023-10-13T12:32:22;23.20;99.90
24472;DHT22;12636;50.852;5.676;2023-10-13T12:34:51;23.20;99.90
24472;DHT22;12636;50.852;5.676;2023-10-13T12:37:27;23.10;99.90
24472;DHT22;12636;50.852;5.676;2023-10-13T12:40:17;23.00;99.90
24472;DHT22;12636;50.852;5.676;2023-10-13T12:43:04;23.00;99.90
24472;DHT22;12636;50.852;5.676;2023-10-13T12:45:50;23.00;99.90
24472;DHT22;12636;50.852;5.676;2023-10-13T12:48:36;23.00;99.90
24472;DHT22;12636;50.852;5.676;2023-10-13T12:51:21;23.00;99.90
24472;DHT22;12636;50.852;5.676;2023-10-13T12:54:06;23.00;99.90
24472;DHT22;12636;50.852;5.676;2023-10-13T12:56:40;23.00;99.90
24472;DHT22;12636;50.852;5.676;2023-10-13T12:59:10;22.90;99.90
24472;DHT22;12636;50.852;5.676;2023-10-13T13:01:39;22.80;99.90
24472;DHT22;12636;50.852;5.676;2023-10-13T13:04:09;22.70;99.90
24472;DHT22;12636;50.852;5.676;2023-10-13T13:06:44;22.70;99.90
24472;DHT22;12636;50.852;5.676;2023-10-13T13:09:11;22.80;99.90
24472;DHT22;12636;50.852;5.676;2023-10-13T13:11:39;22.90;99.90
24472;DHT22;12636;50.852;5.676;2023-10-13T13:14:07;22.90;99.90
24472;DHT22;12636;50.852;5.676;2023-10-13T13:16:36;22.90;99.90
24472;DHT22;12636;50.852;5.676;2023-10-13T13:19:05;23.00;99.90
24472;DHT22;12636;50.852;5.676;2023-10-13T13:21:39;23.00;99.90
24472;DHT22;12636;50.852;5.676;2023-10-13T13:24:07;22.90;99.90
24472;DHT22;12636;50.852;5.676;2023-10-13T13:26:37;22.80;99.90
24472;DHT22;12636;50.852;5.676;2023-10-13T13:29:07;22.70;99.90
24472;DHT22;12636;50.852;5.676;2023-10-13T13:31:38;22.70;99.90
24472;DHT22;12636;50.852;5.676;2023-10-13T13:34:09;22.80;99.90
24472;DHT22;12636;50.852;5.676;2023-10-13T13:36:38;22.90;99.90
24472;DHT22;12636;50.852;5.676;2023-10-13T13:39:10;22.80;99.90
24472;DHT22;12636;50.852;5.676;2023-10-13T13:41:37;22.80;99.90
24472;DHT22;12636;50.852;5.676;2023-10-13T13:44:04;22.70;99.90
24472;DHT22;12636;50.852;5.676;2023-10-13T13:46:42;22.70;99.90
24472;DHT22;12636;50.852;5.676;2023-10-13T13:49:09;22.50;99.90
24472;DHT22;12636;50.852;5.676;2023-10-13T13:51:44;22.50;99.90
24472;DHT22;12636;50.852;5.676;2023-10-13T13:54:18;22.40;99.90
24472;DHT22;12636;50.852;5.676;2023-10-13T13:56:46;22.30;99.90
24472;DHT22;12636;50.852;5.676;2023-10-13T13:59:13;22.30;99.90
24472;DHT22;12636;50.852;5.676;2023-10-13T14:01:47;22.20;99.90
24472;DHT22;12636;50.852;5.676;2023-10-13T14:04:14;22.10;99.90
24472;DHT22;12636;50.852;5.676;2023-10-13T14:06:43;22.00;99.90
24472;DHT22;12636;50.852;5.676;2023-10-13T14:09:11;22.00;99.90
24472;DHT22;12636;50.852;5.676;2023-10-13T14:11:48;22.00;99.90
24472;DHT22;12636;50.852;5.676;2023-10-13T14:14:33;21.90;99.90
24472;DHT22;12636;50.852;5.676;2023-10-13T14:17:02;21.90;99.90
24472;DHT22;12636;50.852;5.676;2023-10-13T14:19:33;21.90;99.90
24472;DHT22;12636;50.852;5.676;2023-10-13T14:22:01;21.90;99.90
24472;DHT22;12636;50.852;5.676;2023-10-13T14:24:32;21.90;99.90
24472;DHT22;12636;50.852;5.676;2023-10-13T14:27:01;21.90;99.90
24472;DHT22;12636;50.852;5.676;2023-10-13T14:29:35;21.90;99.90
24472;DHT22;12636;50.852;5.676;2023-10-13T14:32:08;21.90;99.90
24472;DHT22;12636;50.852;5.676;2023-10-13T14:34:39;21.90;99.90
24472;DHT22;12636;50.852;5.676;2023-10-13T14:37:06;21.90;99.90
24472;DHT22;12636;50.852;5.676;2023-10-13T14:39:34;21.80;99.90
24472;DHT22;12636;50.852;5.676;2023-10-13T14:42:03;21.80;99.90
24472;DHT22;12636;50.852;5.676;2023-10-13T14:44:32;21.80;99.90
24472;DHT22;12636;50.852;5.676;2023-10-13T14:46:59;21.70;99.90
24472;DHT22;12636;50.852;5.676;2023-10-13T14:49:28;21.70;99.90
24472;DHT22;12636;50.852;5.676;2023-10-13T14:51:55;21.70;99.90
24472;DHT22;12636;50.852;5.676;2023-10-13T14:54:25;21.70;99.90
24472;DHT22;12636;50.852;5.676;2023-10-13T14:57:00;21.70;99.90
24472;DHT22;12636;50.852;5.676;2023-10-13T14:59:28;21.70;99.90
24472;DHT22;12636;50.852;5.676;2023-10-13T15:02:00;21.70;99.90
24472;DHT22;12636;50.852;5.676;2023-10-13T15:04:29;21.60;99.90
24472;DHT22;12636;50.852;5.676;2023-10-13T15:06:59;21.60;99.90
24472;DHT22;12636;50.852;5.676;2023-10-13T15:09:28;21.50;99.90
24472;DHT22;12636;50.852;5.676;2023-10-13T15:11:55;21.50;99.90
24472;DHT22;12636;50.852;5.676;2023-10-13T15:14:22;21.50;99.90
24472;DHT22;12636;50.852;5.676;2023-10-13T15:16:50;21.40;99.90
24472;DHT22;12636;50.852;5.676;2023-10-13T15:19:19;21.40;99.90
24472;DHT22;12636;50.852;5.676;2023-10-13T15:21:47;21.50;99.90
24472;DHT22;12636;50.852;5.676;2023-10-13T15:24:16;21.50;99.90
24472;DHT22;12636;50.852;5.676;2023-10-13T15:26:43;21.50;99.90
24472;DHT22;12636;50.852;5.676;2023-10-13T15:29:15;21.40;99.90
24472;DHT22;12636;50.852;5.676;2023-10-13T15:31:44;21.40;99.90
24472;DHT22;12636;50.852;5.676;2023-10-13T15:34:31;21.50;99.90
24472;DHT22;12636;50.852;5.676;2023-10-13T15:37:00;21.40;99.90
24472;DHT22;12636;50.852;5.676;2023-10-13T15:39:30;21.40;99.90
24472;DHT22;12636;50.852;5.676;2023-10-13T15:41:58;21.40;99.90
24472;DHT22;12636;50.852;5.676;2023-10-13T15:44:25;21.40;99.90
24472;DHT22;12636;50.852;5.676;2023-10-13T15:46:56;21.30;99.90
24472;DHT22;12636;50.852;5.676;2023-10-13T15:49:25;21.30;99.90
24472;DHT22;12636;50.852;5.676;2023-10-13T15:51:53;21.30;99.90
24472;DHT22;12636;50.852;5.676;2023-10-13T15:54:23;21.10;99.90
24472;DHT22;12636;50.852;5.676;2023-10-13T15:56:51;21.20;99.90
24472;DHT22;12636;50.852;5.676;2023-10-13T15:59:20;21.20;99.90
24472;DHT22;12636;50.852;5.676;2023-10-13T16:01:48;21.30;99.90
24472;DHT22;12636;50.852;5.676;2023-10-13T16:04:20;21.20;99.90
24472;DHT22;12636;50.852;5.676;2023-10-13T16:06:49;21.20;99.90
24472;DHT22;12636;50.852;5.676;2023-10-13T16:09:17;21.10;99.90
24472;DHT22;12636;50.852;5.676;2023-10-13T16:11:50;21.20;99.90
24472;DHT22;12636;50.852;5.676;2023-10-13T16:14:18;21.20;1.00
24472;DHT22;12636;50.852;5.676;2023-10-13T16:16:47;21.10;1.00
24472;DHT22;12636;50.852;5.676;2023-10-13T16:19:15;21.10;1.00
24472;DHT22;12636;50.852;5.676;2023-10-13T16:21:44;21.20;1.00
24472;DHT22;12636;50.852;5.676;2023-10-13T16:24:12;21.20;1.00
24472;DHT22;12636;50.852;5.676;2023-10-13T16:26:44;21.20;1.00
24472;DHT22;12636;50.852;5.676;2023-10-13T16:29:12;21.20;1.00
24472;DHT22;12636;50.852;5.676;2023-10-13T16:31:40;21.20;1.00
24472;DHT22;12636;50.852;5.676;2023-10-13T16:34:11;21.10;1.00
24472;DHT22;12636;50.852;5.676;2023-10-13T16:36:41;21.10;1.00
24472;DHT22;12636;50.852;5.676;2023-10-13T16:39:10;21.00;1.00
24472;DHT22;12636;50.852;5.676;2023-10-13T16:41:37;21.10;1.00
24472;DHT22;12636;50.852;5.676;2023-10-13T16:44:04;21.10;1.00
24472;DHT22;12636;50.852;5.676;2023-10-13T16:46:37;21.00;1.00
24472;DHT22;12636;50.852;5.676;2023-10-13T16:49:05;20.90;1.00
24472;DHT22;12636;50.852;5.676;2023-10-13T16:51:33;20.70;1.00
24472;DHT22;12636;50.852;5.676;2023-10-13T16:54:00;20.60;1.00
24472;DHT22;12636;50.852;5.676;2023-10-13T16:56:28;20.40;23.40
24472;DHT22;12636;50.852;5.676;2023-10-13T16:58:55;20.30;99.90
24472;DHT22;12636;50.852;5.676;2023-10-13T17:01:22;20.20;1.00
24472;DHT22;12636;50.852;5.676;2023-10-13T17:03:51;20.20;1.00
24472;DHT22;12636;50.852;5.676;2023-10-13T17:06:18;20.00;99.90
24472;DHT22;12636;50.852;5.676;2023-10-13T17:08:47;20.10;99.90
24472;DHT22;12636;50.852;5.676;2023-10-13T17:11:16;20.00;1.00
24472;DHT22;12636;50.852;5.676;2023-10-13T17:13:46;20.10;1.00
24472;DHT22;12636;50.852;5.676;2023-10-13T17:16:15;20.10;7.20
24472;DHT22;12636;50.852;5.676;2023-10-13T17:18:43;20.20;87.30
24472;DHT22;12636;50.852;5.676;2023-10-13T17:21:16;20.40;1.00
24472;DHT22;12636;50.852;5.676;2023-10-13T17:23:44;20.40;1.00
24472;DHT22;12636;50.852;5.676;2023-10-13T17:26:12;20.50;1.00
24472;DHT22;12636;50.852;5.676;2023-10-13T17:28:39;20.60;99.90
24472;DHT22;12636;50.852;5.676;2023-10-13T17:31:07;20.50;99.90
24472;DHT22;12636;50.852;5.676;2023-10-13T17:33:35;20.60;99.90
24472;DHT22;12636;50.852;5.676;2023-10-13T17:36:06;20.60;99.90
24472;DHT22;12636;50.852;5.676;2023-10-13T17:38:35;20.60;99.90
24472;DHT22;12636;50.852;5.676;2023-10-13T17:41:03;20.80;1.00
24472;DHT22;12636;50.852;5.676;2023-10-13T17:43:32;20.70;1.00
24472;DHT22;12636;50.852;5.676;2023-10-13T17:46:05;20.70;1.00
24472;DHT22;12636;50.852;5.676;2023-10-13T17:48:34;20.70;1.00
24472;DHT22;12636;50.852;5.676;2023-10-13T17:51:03;20.70;1.00
24472;DHT22;12636;50.852;5.676;2023-10-13T17:53:31;20.80;1.00
24472;DHT22;12636;50.852;5.676;2023-10-13T17:56:06;20.70;1.00
24472;DHT22;12636;50.852;5.676;2023-10-13T17:58:37;20.60;1.00
24472;DHT22;12636;50.852;5.676;2023-10-13T18:01:06;20.60;1.00
24472;DHT22;12636;50.852;5.676;2023-10-13T18:03:34;20.60;1.00
24472;DHT22;12636;50.852;5.676;2023-10-13T18:06:05;20.50;1.00
24472;DHT22;12636;50.852;5.676;2023-10-13T18:08:37;20.60;1.00
24472;DHT22;12636;50.852;5.676;2023-10-13T18:11:05;20.50;1.00
24472;DHT22;12636;50.852;5.676;2023-10-13T18:13:33;20.20;99.90
24472;DHT22;12636;50.852;5.676;2023-10-13T18:16:00;20.10;1.00
24472;DHT22;12636;50.852;5.676;2023-10-13T18:18:37;19.90;99.90
24472;DHT22;12636;50.852;5.676;2023-10-13T18:21:05;19.80;99.90
24472;DHT22;12636;50.852;5.676;2023-10-13T18:23:34;19.70;99.90
24472;DHT22;12636;50.852;5.676;2023-10-13T18:26:01;19.80;99.90
24472;DHT22;12636;50.852;5.676;2023-10-13T18:28:31;19.80;1.00
24472;DHT22;12636;50.852;5.676;2023-10-13T18:31:00;19.80;1.00
24472;DHT22;12636;50.852;5.676;2023-10-13T18:33:30;19.90;1.00
24472;DHT22;12636;50.852;5.676;2023-10-13T18:36:10;20.00;1.00
24472;DHT22;12636;50.852;5.676;2023-10-13T18:38:38;20.10;99.90
24472;DHT22;12636;50.852;5.676;2023-10-13T18:41:05;20.10;1.00
24472;DHT22;12636;50.852;5.676;2023-10-13T18:43:35;20.20;99.90
24472;DHT22;12636;50.852;5.676;2023-10-13T18:46:04;20.20;1.00
24472;DHT22;12636;50.852;5.676;2023-10-13T18:48:34;20.20;1.00
24472;DHT22;12636;50.852;5.676;2023-10-13T18:51:04;20.20;99.90
24472;DHT22;12636;50.852;5.676;2023-10-13T18:53:32;20.20;99.90
24472;DHT22;12636;50.852;5.676;2023-10-13T18:56:05;20.30;1.00
24472;DHT22;12636;50.852;5.676;2023-10-13T18:58:37;20.40;1.00
24472;DHT22;12636;50.852;5.676;2023-10-13T19:01:12;20.50;99.90
24472;DHT22;12636;50.852;5.676;2023-10-13T19:03:41;20.50;1.00
24472;DHT22;12636;50.852;5.676;2023-10-13T19:06:09;20.50;1.00
24472;DHT22;12636;50.852;5.676;2023-10-13T19:08:36;20.50;1.00
24472;DHT22;12636;50.852;5.676;2023-10-13T19:11:04;20.40;1.00
24472;DHT22;12636;50.852;5.676;2023-10-13T19:13:35;20.10;99.90
24472;DHT22;12636;50.852;5.676;2023-10-13T19:16:05;19.90;1.00
24472;DHT22;12636;50.852;5.676;2023-10-13T19:18:33;19.90;1.00
24472;DHT22;12636;50.852;5.676;2023-10-13T19:21:02;19.90;99.90
24472;DHT22;12636;50.852;5.676;2023-10-13T19:23:31;19.90;1.00
24472;DHT22;12636;50.852;5.676;2023-10-13T19:25:58;20.00;1.00
24472;DHT22;12636;50.852;5.676;2023-10-13T19:28:25;20.20;1.00
24472;DHT22;12636;50.852;5.676;2023-10-13T19:30:55;20.40;1.00
24472;DHT22;12636;50.852;5.676;2023-10-13T19:33:22;20.30;1.00
24472;DHT22;12636;50.852;5.676;2023-10-13T19:35:49;20.30;99.90
24472;DHT22;12636;50.852;5.676;2023-10-13T19:38:17;20.40;1.00
24472;DHT22;12636;50.852;5.676;2023-10-13T19:40:44;20.40;99.90
24472;DHT22;12636;50.852;5.676;2023-10-13T19:43:11;20.50;1.00
24472;DHT22;12636;50.852;5.676;2023-10-13T19:45:39;20.50;99.90
24472;DHT22;12636;50.852;5.676;2023-10-13T19:48:08;20.50;24.60
24472;DHT22;12636;50.852;5.676;2023-10-13T19:50:36;20.60;1.00
24472;DHT22;12636;50.852;5.676;2023-10-13T19:53:04;20.60;1.00
24472;DHT22;12636;50.852;5.676;2023-10-13T19:55:40;20.60;99.90
24472;DHT22;12636;50.852;5.676;2023-10-13T19:58:08;20.70;99.90
24472;DHT22;12636;50.852;5.676;2023-10-13T20:00:35;20.80;10.50
24472;DHT22;12636;50.852;5.676;2023-10-13T20:03:02;20.90;1.00
24472;DHT22;12636;50.852;5.676;2023-10-13T20:05:35;20.90;1.00
24472;DHT22;12636;50.852;5.676;2023-10-13T20:08:03;20.90;1.00
24472;DHT22;12636;50.852;5.676;2023-10-13T20:10:31;20.90;1.00
24472;DHT22;12636;50.852;5.676;2023-10-13T20:13:03;20.80;1.00
24472;DHT22;12636;50.852;5.676;2023-10-13T20:15:30;20.80;1.00
24472;DHT22;12636;50.852;5.676;2023-10-13T20:17:58;20.90;1.00
24472;DHT22;12636;50.852;5.676;2023-10-13T20:20:26;20.90;1.00
24472;DHT22;12636;50.852;5.676;2023-10-13T20:22:55;20.80;1.00
24472;DHT22;12636;50.852;5.676;2023-10-13T20:25:22;20.70;1.00
24472;DHT22;12636;50.852;5.676;2023-10-13T20:27:50;20.60;1.00
24472;DHT22;12636;50.852;5.676;2023-10-13T20:30:18;20.60;1.00
24472;DHT22;12636;50.852;5.676;2023-10-13T20:32:47;20.60;1.00
24472;DHT22;12636;50.852;5.676;2023-10-13T20:35:14;20.60;1.00
24472;DHT22;12636;50.852;5.676;2023-10-13T20:37:47;20.50;31.10
24472;DHT22;12636;50.852;5.676;2023-10-13T20:40:16;20.50;91.00
24472;DHT22;12636;50.852;5.676;2023-10-13T20:42:47;20.60;89.10
24472;DHT22;12636;50.852;5.676;2023-10-13T20:45:16;20.60;33.10
24472;DHT22;12636;50.852;5.676;2023-10-13T20:47:49;20.70;1.00
24472;DHT22;12636;50.852;5.676;2023-10-13T20:50:18;20.70;1.00
24472;DHT22;12636;50.852;5.676;2023-10-13T20:52:46;20.80;1.00
24472;DHT22;12636;50.852;5.676;2023-10-13T20:55:17;20.80;1.00
24472;DHT22;12636;50.852;5.676;2023-10-13T20:57:44;20.70;1.00
24472;DHT22;12636;50.852;5.676;2023-10-13T21:00:16;20.70;1.00
24472;DHT22;12636;50.852;5.676;2023-10-13T21:02:48;20.60;1.00
24472;DHT22;12636;50.852;5.676;2023-10-13T21:05:16;20.70;1.00
24472;DHT22;12636;50.852;5.676;2023-10-13T21:07:47;20.70;1.00
24472;DHT22;12636;50.852;5.676;2023-10-13T21:10:17;20.60;1.00
24472;DHT22;12636;50.852;5.676;2023-10-13T21:12:48;20.70;1.00
24472;DHT22;12636;50.852;5.676;2023-10-13T21:15:16;20.60;1.00
24472;DHT22;12636;50.852;5.676;2023-10-13T21:17:44;20.60;1.00
24472;DHT22;12636;50.852;5.676;2023-10-13T21:20:13;20.70;1.00
24472;DHT22;12636;50.852;5.676;2023-10-13T21:22:41;20.60;1.00
24472;DHT22;12636;50.852;5.676;2023-10-13T21:25:09;20.50;1.00
24472;DHT22;12636;50.852;5.676;2023-10-13T21:27:51;20.50;1.00
24472;DHT22;12636;50.852;5.676;2023-10-13T21:30:19;20.50;1.00
24472;DHT22;12636;50.852;5.676;2023-10-13T21:32:47;20.50;1.00
24472;DHT22;12636;50.852;5.676;2023-10-13T21:35:15;20.40;1.00
24472;DHT22;12636;50.852;5.676;2023-10-13T21:37:43;20.40;1.00
24472;DHT22;12636;50.852;5.676;2023-10-13T21:40:12;20.40;1.00
24472;DHT22;12636;50.852;5.676;2023-10-13T21:42:45;20.40;51.30
24472;DHT22;12636;50.852;5.676;2023-10-13T21:45:15;20.40;99.90
24472;DHT22;12636;50.852;5.676;2023-10-13T21:47:42;20.40;99.90
24472;DHT22;12636;50.852;5.676;2023-10-13T21:50:11;20.40;99.90
24472;DHT22;12636;50.852;5.676;2023-10-13T21:52:43;20.30;99.90
24472;DHT22;12636;50.852;5.676;2023-10-13T21:55:11;20.20;99.90
24472;DHT22;12636;50.852;5.676;2023-10-13T21:57:44;20.20;1.00
24472;DHT22;12636;50.852;5.676;2023-10-13T22:00:14;20.20;1.00
24472;DHT22;12636;50.852;5.676;2023-10-13T22:03:08;20.10;1.00
24472;DHT22;12636;50.852;5.676;2023-10-13T22:05:38;20.10;99.90
24472;DHT22;12636;50.852;5.676;2023-10-13T22:08:06;20.00;99.90
24472;DHT22;12636;50.852;5.676;2023-10-13T22:10:33;20.00;1.00
24472;DHT22;12636;50.852;5.676;2023-10-13T22:13:01;20.00;1.00
24472;DHT22;12636;50.852;5.676;2023-10-13T22:15:30;20.00;1.00
24472;DHT22;12636;50.852;5.676;2023-10-13T22:17:57;19.90;99.90
24472;DHT22;12636;50.852;5.676;2023-10-13T22:20:25;19.90;1.00
24472;DHT22;12636;50.852;5.676;2023-10-13T22:22:52;19.80;99.90
24472;DHT22;12636;50.852;5.676;2023-10-13T22:25:19;19.70;99.90
24472;DHT22;12636;50.852;5.676;2023-10-13T22:27:47;19.50;1.00
24472;DHT22;12636;50.852;5.676;2023-10-13T22:30:16;19.50;1.00
24472;DHT22;12636;50.852;5.676;2023-10-13T22:32:46;19.50;99.90
24472;DHT22;12636;50.852;5.676;2023-10-13T22:35:14;19.40;1.00
24472;DHT22;12636;50.852;5.676;2023-10-13T22:37:46;19.40;1.00
24472;DHT22;12636;50.852;5.676;2023-10-13T22:40:15;19.40;1.00
24472;DHT22;12636;50.852;5.676;2023-10-13T22:42:42;19.40;1.00
24472;DHT22;12636;50.852;5.676;2023-10-13T22:45:12;19.40;1.00
24472;DHT22;12636;50.852;5.676;2023-10-13T22:47:47;19.50;1.00
24472;DHT22;12636;50.852;5.676;2023-10-13T22:50:14;19.40;1.00
24472;DHT22;12636;50.852;5.676;2023-10-13T22:52:44;19.40;1.00
24472;DHT22;12636;50.852;5.676;2023-10-13T22:55:11;19.40;1.00
24472;DHT22;12636;50.852;5.676;2023-10-13T22:57:49;19.50;1.00
24472;DHT22;12636;50.852;5.676;2023-10-13T23:00:17;19.40;1.00
24472;DHT22;12636;50.852;5.676;2023-10-13T23:02:47;19.40;1.00
24472;DHT22;12636;50.852;5.676;2023-10-13T23:05:18;19.40;1.00
24472;DHT22;12636;50.852;5.676;2023-10-13T23:07:56;19.30;1.00
24472;DHT22;12636;50.852;5.676;2023-10-13T23:10:45;19.40;1.00
24472;DHT22;12636;50.852;5.676;2023-10-13T23:13:13;19.40;1.00
24472;DHT22;12636;50.852;5.676;2023-10-13T23:15:45;19.50;1.00
24472;DHT22;12636;50.852;5.676;2023-10-13T23:18:14;19.50;1.00
24472;DHT22;12636;50.852;5.676;2023-10-13T23:20:44;19.40;1.00
24472;DHT22;12636;50.852;5.676;2023-10-13T23:23:16;19.40;1.00
24472;DHT22;12636;50.852;5.676;2023-10-13T23:25:44;19.40;1.00
24472;DHT22;12636;50.852;5.676;2023-10-13T23:28:11;19.50;99.90
24472;DHT22;12636;50.852;5.676;2023-10-13T23:30:43;19.40;99.90
24472;DHT22;12636;50.852;5.676;2023-10-13T23:33:11;19.10;1.00
24472;DHT22;12636;50.852;5.676;2023-10-13T23:35:40;18.90;1.00
24472;DHT22;12636;50.852;5.676;2023-10-13T23:38:08;18.80;1.00
24472;DHT22;12636;50.852;5.676;2023-10-13T23:40:52;18.30;99.90
24472;DHT22;12636;50.852;5.676;2023-10-13T23:43:21;17.70;99.90
24472;DHT22;12636;50.852;5.676;2023-10-13T23:45:50;17.40;99.90
24472;DHT22;12636;50.852;5.676;2023-10-13T23:48:23;17.30;99.90
24472;DHT22;12636;50.852;5.676;2023-10-13T23:50:54;17.30;99.90
24472;DHT22;12636;50.852;5.676;2023-10-13T23:53:25;17.20;99.90
24472;DHT22;12636;50.852;5.676;2023-10-13T23:55:59;17.20;99.90
24472;DHT22;12636;50.852;5.676;2023-10-13T23:58:35;17.30;99.90
